createdAt,value
2019-01-19T00:01:39.532Z,80.87
2019-01-19T00:05:11.300Z,80.58
2019-01-19T00:08:11.617Z,81.19
2019-01-19T00:11:13.081Z,79.66
2019-01-19T00:14:32.596Z,80.11
2019-01-19T00:17:18.853Z,80.31
2019-01-19T00:20:09.064Z,80.00
2019-01-19T00:22:58.317Z,80.50
2019-01-19T00:26:07.319Z,80.12
2019-01-19T00:28:49.763Z,79.66
2019-01-19T00:31:29.323Z,78.96
2019-01-19T00:34:42.739Z,78.72
2019-01-19T00:37:24.052Z,79.79
2019-01-19T00:40:57.763Z,79.82
2019-01-19T00:43:52.556Z,79.18
2019-01-19T00:46:43.332Z,79.75
2019-01-19T00:49:31.292Z,79.20
2019-01-19T00:52:35.169Z,79.35
2019-01-19T00:55:16.812Z,79.38
2019-01-19T00:58:09.612Z,79.49
2019-01-19T01:00:53.383Z,79.57
2019-01-19T01:03:35.691Z,80.04
2019-01-19T01:06:43.078Z,80.16
2019-01-19T01:09:48.255Z,80.51
2019-01-19T01:12:59.269Z,80.33
2019-01-19T01:15:55.537Z,80.73
2019-01-19T01:18:57.378Z,80.23
2019-01-19T01:22:08.931Z,79.85
2019-01-19T01:25:37.842Z,79.33
2019-01-19T01:28:34.202Z,80.12
2019-01-19T01:31:10.899Z,79.82
2019-01-19T01:34:23.223Z,79.15
2019-01-19T01:37:26.806Z,79.93
2019-01-19T01:40:15.879Z,80.23
2019-01-19T01:43:22.101Z,79.75
2019-01-19T01:46:44.631Z,79.64
2019-01-19T01:49:28.549Z,79.71
2019-01-19T01:52:29.707Z,80.38
2019-01-19T01:55:19.341Z,80.16
2019-01-19T01:58:16.823Z,80.14
2019-01-19T02:01:05.964Z,80.46
2019-01-19T02:04:06.026Z,80.85
2019-01-19T02:07:19.323Z,79.76
2019-01-19T02:10:32.598Z,80.75
2019-01-19T02:13:11.988Z,80.73
2019-01-19T02:15:52.878Z,80.76
2019-01-19T02:19:02.668Z,80.90
2019-01-19T02:22:09.448Z,81.10
2019-01-19T02:25:29.100Z,81.28
2019-01-19T02:28:16.002Z,81.20
2019-01-19T02:31:31.740Z,81.35
2019-01-19T02:34:35.545Z,81.53
2019-01-19T02:37:35.319Z,81.03
2019-01-19T02:40:48.250Z,81.64
2019-01-19T02:43:43.181Z,81.66
2019-01-19T02:46:58.726Z,81.68
2019-01-19T02:50:23.547Z,81.26
2019-01-19T02:53:24.780Z,81.42
2019-01-19T02:56:01.852Z,82.00
2019-01-19T02:59:15.178Z,81.85
2019-01-19T03:02:03.653Z,81.82
2019-01-19T03:05:15.842Z,81.63
2019-01-19T03:08:05.838Z,81.45
2019-01-19T03:11:32.154Z,80.99
2019-01-19T03:14:23.108Z,81.24
2019-01-19T03:17:29.039Z,79.33
2019-01-19T03:20:20.686Z,80.71
2019-01-19T03:23:18.554Z,80.55
2019-01-19T03:26:02.564Z,81.30
2019-01-19T03:28:56.576Z,81.17
2019-01-19T03:31:55.389Z,81.12
2019-01-19T03:34:52.914Z,81.57
2019-01-19T03:38:08.941Z,81.26
2019-01-19T03:41:09.273Z,81.07
2019-01-19T03:44:20.367Z,81.03
2019-01-19T03:47:18.827Z,80.66
2019-01-19T03:50:16.873Z,80.56
2019-01-19T03:53:32.580Z,80.96
2019-01-19T03:56:31.375Z,81.17
2019-01-19T03:59:44.183Z,81.56
2019-01-19T04:02:35.933Z,81.79
2019-01-19T04:05:44.977Z,81.54
2019-01-19T04:09:10.699Z,82.10
2019-01-19T04:11:52.066Z,81.84
2019-01-19T04:14:47.538Z,81.41
2019-01-19T04:17:38.625Z,81.38
2019-01-19T04:20:47.511Z,81.89
2019-01-19T04:23:16.408Z,82.20
2019-01-19T04:26:27.237Z,82.11
2019-01-19T04:28:56.147Z,81.97
2019-01-19T04:31:25.063Z,81.59
2019-01-19T04:33:53.955Z,79.98
2019-01-19T04:36:22.868Z,80.38
2019-01-19T04:38:51.731Z,80.53
2019-01-19T04:41:20.618Z,80.77
2019-01-19T04:43:49.520Z,80.44
2019-01-19T04:46:18.430Z,79.90
2019-01-19T04:48:47.314Z,79.76
2019-01-19T04:51:16.216Z,80.07
2019-01-19T04:53:45.107Z,79.89
2019-01-19T04:56:14.038Z,79.95
2019-01-19T04:58:42.936Z,80.03
2019-01-19T05:01:11.832Z,78.68
2019-01-19T05:03:40.714Z,79.72
2019-01-19T05:06:12.381Z,79.74
2019-01-19T05:08:38.492Z,79.69
2019-01-19T05:11:07.415Z,79.62
2019-01-19T05:13:36.355Z,79.89
2019-01-19T05:16:05.189Z,80.74
2019-01-19T05:18:34.067Z,80.82
2019-01-19T05:21:02.965Z,80.68
2019-01-19T05:23:31.832Z,80.10
2019-01-19T05:26:00.723Z,79.84
2019-01-19T05:28:29.589Z,78.70
2019-01-19T05:30:59.286Z,79.43
2019-01-19T05:33:27.386Z,79.79
2019-01-19T05:35:56.267Z,79.64
2019-01-19T05:38:25.161Z,79.46
2019-01-19T05:40:54.068Z,78.22
2019-01-19T05:43:22.918Z,76.73
2019-01-19T05:45:51.836Z,78.21
2019-01-19T05:48:20.733Z,78.47
2019-01-19T05:50:49.605Z,78.66
2019-01-19T05:53:18.524Z,78.54
2019-01-19T05:55:47.387Z,78.79
2019-01-19T05:58:16.243Z,79.00
2019-01-19T06:00:45.147Z,79.01
2019-01-19T06:03:14.074Z,79.16
2019-01-19T06:05:42.952Z,79.12
2019-01-19T06:08:11.814Z,79.44
2019-01-19T06:10:40.728Z,79.51
2019-01-19T06:13:09.592Z,79.62
2019-01-19T06:15:38.502Z,79.31
2019-01-19T06:18:07.384Z,79.35
2019-01-19T06:20:36.260Z,79.48
2019-01-19T06:23:05.153Z,79.51
2019-01-19T06:25:34.034Z,79.67
2019-01-19T06:28:02.970Z,79.85
2019-01-19T06:30:31.832Z,79.97
2019-01-19T06:33:00.731Z,79.70
2019-01-19T06:35:29.609Z,79.49
2019-01-19T06:37:58.501Z,79.22
2019-01-19T06:40:27.387Z,79.45
2019-01-19T06:42:56.287Z,79.33
2019-01-19T06:45:26.172Z,79.26
2019-01-19T06:47:55.064Z,79.51
2019-01-19T06:50:23.975Z,78.93
2019-01-19T06:52:52.870Z,79.27
2019-01-19T06:55:33.111Z,79.58
2019-01-19T06:58:02.008Z,80.19
2019-01-19T07:00:30.930Z,79.87
2019-01-19T07:02:59.808Z,79.55
2019-01-19T07:05:28.708Z,79.42
2019-01-19T07:07:57.600Z,78.97
2019-01-19T07:10:27.055Z,78.93
2019-01-19T07:12:55.946Z,79.31
2019-01-19T07:15:24.847Z,79.55
2019-01-19T07:17:53.743Z,78.57
2019-01-19T07:20:25.286Z,79.40
2019-01-19T07:22:54.182Z,79.45
2019-01-19T07:25:23.061Z,79.60
2019-01-19T07:27:52.039Z,79.70
2019-01-19T07:30:20.854Z,79.62
2019-01-19T07:32:49.779Z,79.84
2019-01-19T07:35:18.651Z,80.01
2019-01-19T07:37:47.576Z,79.76
2019-01-19T07:40:17.148Z,80.18
2019-01-19T07:42:46.294Z,79.97
2019-01-19T07:45:15.544Z,79.51
2019-01-19T07:47:45.334Z,79.37
2019-01-19T07:50:15.965Z,79.67
2019-01-19T07:52:44.838Z,78.62
2019-01-19T07:55:15.132Z,79.05
2019-01-19T07:57:44.027Z,79.28
2019-01-19T08:00:15.713Z,79.26
2019-01-19T08:02:44.634Z,79.43
2019-01-19T08:05:13.583Z,79.37
2019-01-19T08:07:42.542Z,78.89
2019-01-19T08:10:13.737Z,78.77
2019-01-19T08:12:42.660Z,78.72
2019-01-19T08:15:14.416Z,78.48
2019-01-19T08:17:45.077Z,78.29
2019-01-19T08:20:14.018Z,78.34
2019-01-19T08:22:43.060Z,79.26
2019-01-19T08:25:11.984Z,78.62
2019-01-19T08:27:41.299Z,78.33
2019-01-19T08:30:18.848Z,78.30
2019-01-19T08:32:47.723Z,77.69
2019-01-19T08:35:17.286Z,77.53
2019-01-19T08:37:46.297Z,77.36
2019-01-19T08:40:17.772Z,77.78
2019-01-19T08:42:47.622Z,77.47
2019-01-19T08:45:16.850Z,77.45
2019-01-19T08:47:45.771Z,76.67
2019-01-19T08:50:14.949Z,75.06
2019-01-19T08:52:43.864Z,75.49
2019-01-19T08:55:12.749Z,72.49
2019-01-19T08:57:41.632Z,72.72
2019-01-19T09:00:13.686Z,72.70
2019-01-19T09:02:42.613Z,72.61
2019-01-19T09:05:11.502Z,69.29
2019-01-19T09:07:40.382Z,70.02
2019-01-19T09:10:11.387Z,69.76
2019-01-19T09:12:40.289Z,69.79
2019-01-19T09:15:11.128Z,67.21
2019-01-19T09:17:40.004Z,68.58
2019-01-19T09:20:10.501Z,68.85
2019-01-19T09:22:39.382Z,67.41
2019-01-19T09:25:09.964Z,69.08
2019-01-19T09:27:38.827Z,69.33
2019-01-19T09:30:16.910Z,69.61
2019-01-19T09:32:45.844Z,69.75
2019-01-19T09:35:15.267Z,69.51
2019-01-19T09:37:44.144Z,69.54
2019-01-19T09:40:14.067Z,69.58
2019-01-19T09:42:42.957Z,69.38
2019-01-19T09:45:11.998Z,69.32
2019-01-19T09:47:40.865Z,67.86
2019-01-19T09:50:11.467Z,66.32
2019-01-19T09:52:40.353Z,67.78
2019-01-19T09:55:09.311Z,67.17
2019-01-19T09:57:38.184Z,66.76
2019-01-19T10:00:10.438Z,66.43
2019-01-19T10:02:39.302Z,65.50
2019-01-19T10:05:11.883Z,64.60
2019-01-19T10:07:48.256Z,63.41
2019-01-19T10:10:15.795Z,61.13
2019-01-19T10:12:45.608Z,63.07
2019-01-19T10:15:15.863Z,62.55
2019-01-19T10:17:45.023Z,62.37
2019-01-19T10:20:19.410Z,61.79
2019-01-19T10:22:48.982Z,60.90
2019-01-19T10:25:18.190Z,60.42
2019-01-19T10:27:51.449Z,58.39
2019-01-19T10:30:22.839Z,57.30
2019-01-19T10:32:54.793Z,56.12
2019-01-19T10:35:24.003Z,55.86
2019-01-19T10:37:57.817Z,56.08
2019-01-19T10:40:22.259Z,56.51
2019-01-19T10:42:51.367Z,56.00
2019-01-19T10:45:22.882Z,55.88
2019-01-19T10:47:51.972Z,55.94
2019-01-19T10:50:21.081Z,55.96
2019-01-19T10:52:50.312Z,56.20
2019-01-19T10:55:22.573Z,56.22
2019-01-19T10:57:51.867Z,55.68
2019-01-19T11:00:26.724Z,55.13
2019-01-19T11:02:56.817Z,55.48
2019-01-19T11:05:27.728Z,55.38
2019-01-19T11:08:03.447Z,54.55
2019-01-19T11:10:29.062Z,52.86
2019-01-19T11:13:00.235Z,52.54
2019-01-19T11:15:28.104Z,50.93
2019-01-19T11:17:57.671Z,50.22
2019-01-19T11:20:31.156Z,49.65
2019-01-19T11:23:00.954Z,48.55
2019-01-19T11:25:33.414Z,48.31
2019-01-19T11:28:05.478Z,47.74
2019-01-19T11:30:37.455Z,46.89
2019-01-19T11:33:06.716Z,47.48
2019-01-19T11:35:38.478Z,47.54
2019-01-19T11:38:12.013Z,47.45
2019-01-19T11:40:40.493Z,47.79
2019-01-19T11:43:11.257Z,48.72
2019-01-19T11:45:43.727Z,48.24
2019-01-19T11:48:20.613Z,48.44
2019-01-19T11:50:49.574Z,47.79
2019-01-19T11:53:20.279Z,49.50
2019-01-19T11:55:49.748Z,49.74
2019-01-19T11:58:18.964Z,51.27
2019-01-19T12:00:48.127Z,53.06
2019-01-19T12:03:17.299Z,54.10
2019-01-19T12:05:46.542Z,53.77
2019-01-19T12:08:19.674Z,54.75
2019-01-19T12:10:45.199Z,55.70
2019-01-19T12:13:14.385Z,55.98
2019-01-19T12:15:43.734Z,56.62
2019-01-19T12:18:15.238Z,56.97
2019-01-19T12:20:49.460Z,58.32
2019-01-19T12:23:20.386Z,59.24
2019-01-19T12:25:48.254Z,59.42
2019-01-19T12:28:17.473Z,58.83
2019-01-19T12:30:55.108Z,59.70
2019-01-19T12:33:23.572Z,60.45
2019-01-19T12:35:52.766Z,60.23
2019-01-19T12:38:26.924Z,59.86
2019-01-19T12:40:53.398Z,60.16
2019-01-19T12:43:28.687Z,60.64
2019-01-19T12:46:05.817Z,60.02
2019-01-19T12:48:36.593Z,60.45
2019-01-19T12:51:11.608Z,61.20
2019-01-19T12:53:40.575Z,60.70
2019-01-19T12:56:19.307Z,60.48
2019-01-19T12:58:48.436Z,62.03
2019-01-19T13:01:20.239Z,60.34
2019-01-19T13:03:52.050Z,59.92
2019-01-19T13:06:32.558Z,60.18
2019-01-19T13:09:12.548Z,61.13
2019-01-19T13:12:21.206Z,61.22
2019-01-19T13:15:34.859Z,61.08
2019-01-19T13:18:41.029Z,61.13
2019-01-19T13:21:57.397Z,61.46
2019-01-19T13:25:06.077Z,61.74
2019-01-19T13:27:47.329Z,61.23
2019-01-19T13:31:06.013Z,61.67
2019-01-19T13:34:14.649Z,61.52
2019-01-19T13:37:10.815Z,61.98
2019-01-19T13:40:24.690Z,61.24
2019-01-19T13:43:45.750Z,61.79
2019-01-19T13:46:55.395Z,62.22
2019-01-19T13:50:00.369Z,62.23
2019-01-19T13:53:05.683Z,61.00
2019-01-19T13:56:03.882Z,61.93
2019-01-19T13:58:45.312Z,61.91
2019-01-19T14:01:41.417Z,61.90
2019-01-19T14:05:09.113Z,61.66
2019-01-19T14:07:59.225Z,61.26
2019-01-19T14:11:00.812Z,62.18
2019-01-19T14:14:23.326Z,61.73
2019-01-19T14:17:28.440Z,62.56
2019-01-19T14:20:45.205Z,62.85
2019-01-19T14:23:34.614Z,60.98
2019-01-19T14:26:59.424Z,61.95
2019-01-19T14:29:53.567Z,61.79
2019-01-19T14:33:04.869Z,61.55
2019-01-19T14:36:15.875Z,61.90
2019-01-19T14:38:57.061Z,62.61
2019-01-19T14:42:03.912Z,63.04
2019-01-19T14:45:30.006Z,62.73
2019-01-19T14:48:35.756Z,63.13
2019-01-19T14:51:34.982Z,62.83
2019-01-19T14:54:14.636Z,62.61
2019-01-19T14:57:31.171Z,63.12
2019-01-19T15:00:41.516Z,63.85
2019-01-19T15:03:32.733Z,63.77
2019-01-19T15:06:42.339Z,63.38
2019-01-19T15:09:20.252Z,63.24
2019-01-19T15:12:20.470Z,64.04
2019-01-19T15:15:18.750Z,64.21
2019-01-19T15:18:19.931Z,64.39
2019-01-19T15:21:29.469Z,65.02
2019-01-19T15:24:56.293Z,64.95
2019-01-19T15:28:00.398Z,64.79
2019-01-19T15:31:11.856Z,65.22
2019-01-19T15:34:22.713Z,65.38
2019-01-19T15:37:29.178Z,65.89
2019-01-19T15:40:18.230Z,65.72
2019-01-19T15:43:35.515Z,66.44
2019-01-19T15:46:46.524Z,66.40
2019-01-19T15:50:12.192Z,66.47
2019-01-19T15:52:53.805Z,66.80
2019-01-19T15:56:12.445Z,66.79
2019-01-19T15:59:21.525Z,67.19
2019-01-19T16:02:43.251Z,66.97
2019-01-19T16:05:42.062Z,67.68
2019-01-19T16:09:18.226Z,67.42
2019-01-19T16:12:37.109Z,67.64
2019-01-19T16:15:42.987Z,67.53
2019-01-19T16:18:34.648Z,67.76
2019-01-19T16:21:51.478Z,68.47
2019-01-19T16:24:46.097Z,68.06
2019-01-19T16:27:57.098Z,68.46
2019-01-19T16:31:22.629Z,68.53
2019-01-19T16:34:15.237Z,69.25
2019-01-19T16:37:34.704Z,69.43
2019-01-19T16:40:54.384Z,69.38
2019-01-19T16:43:35.882Z,69.65
2019-01-19T16:46:25.798Z,69.38
2019-01-19T16:49:25.270Z,69.16
2019-01-19T16:53:06.867Z,69.22
2019-01-19T16:55:54.779Z,69.12
2019-01-19T16:58:54.959Z,68.78
2019-01-19T17:01:45.753Z,69.02
2019-01-19T17:05:05.885Z,69.15
2019-01-19T17:08:28.047Z,68.12
2019-01-19T17:11:21.702Z,68.88
2019-01-19T17:14:46.529Z,69.38
2019-01-19T17:17:58.575Z,68.91
2019-01-19T17:21:06.376Z,68.94
2019-01-19T17:24:02.047Z,68.88
2019-01-19T17:27:05.931Z,68.96
2019-01-19T17:30:11.727Z,69.28
2019-01-19T17:33:01.820Z,69.63
2019-01-19T17:36:18.843Z,69.11
2019-01-19T17:39:40.131Z,69.27
2019-01-19T17:42:46.386Z,69.13
2019-01-19T17:45:24.578Z,68.65
2019-01-19T17:48:23.579Z,68.48
2019-01-19T17:51:33.662Z,68.78
2019-01-19T17:54:46.074Z,68.38
2019-01-19T17:57:40.918Z,67.89
2019-01-19T18:00:37.006Z,68.27
2019-01-19T18:03:40.931Z,68.17
2019-01-19T18:07:04.668Z,68.40
2019-01-19T18:10:14.559Z,68.28
2019-01-19T18:13:07.770Z,68.42
2019-01-19T18:15:56.317Z,68.15
2019-01-19T18:19:03.006Z,67.67
2019-01-19T18:22:25.725Z,68.04
2019-01-19T18:25:18.275Z,67.54
2019-01-19T18:28:03.136Z,67.81
2019-01-19T18:31:00.986Z,67.75
2019-01-19T18:34:11.783Z,67.71
2019-01-19T18:37:27.611Z,67.63
2019-01-19T18:40:39.391Z,68.02
2019-01-19T18:43:32.491Z,67.99
2019-01-19T18:46:55.225Z,67.89
2019-01-19T18:50:01.874Z,67.72
2019-01-19T18:53:09.509Z,67.45
2019-01-19T18:56:22.822Z,68.43
2019-01-19T18:59:09.646Z,67.66
2019-01-19T19:02:10.435Z,67.90
2019-01-19T19:04:49.275Z,68.15
2019-01-19T19:08:00.213Z,68.27
2019-01-19T19:11:14.476Z,68.32
2019-01-19T19:14:10.950Z,68.66
2019-01-19T19:17:03.777Z,68.22
2019-01-19T19:19:56.560Z,68.35
2019-01-19T19:22:48.402Z,68.16
2019-01-19T19:26:17.558Z,68.14
2019-01-19T19:29:37.652Z,68.29
2019-01-19T19:32:44.119Z,67.66
2019-01-19T19:35:55.332Z,68.71
2019-01-19T19:38:54.079Z,68.48
2019-01-19T19:42:05.110Z,69.06
2019-01-19T19:45:38.446Z,68.75
2019-01-19T19:48:48.270Z,69.00
2019-01-19T19:51:57.266Z,69.24
2019-01-19T19:54:25.039Z,69.40
2019-01-19T19:56:56.863Z,69.71
2019-01-19T19:59:26.153Z,68.94
2019-01-19T20:01:58.144Z,69.78
2019-01-19T20:04:27.505Z,69.49
2019-01-19T20:06:56.635Z,69.07
2019-01-19T20:09:27.788Z,69.71
2019-01-19T20:12:05.499Z,69.43
2019-01-19T20:14:34.809Z,69.77
2019-01-19T20:17:04.052Z,69.50
2019-01-19T20:19:33.503Z,70.07
2019-01-19T20:22:02.710Z,70.14
2019-01-19T20:24:31.800Z,70.65
2019-01-19T20:27:01.196Z,70.44
2019-01-19T20:29:32.938Z,70.28
2019-01-19T20:32:02.243Z,70.48
2019-01-19T20:34:34.304Z,70.76
2019-01-19T20:37:03.454Z,70.72
2019-01-19T20:39:34.130Z,70.73
2019-01-19T20:42:02.219Z,70.68
2019-01-19T20:44:34.787Z,71.11
2019-01-19T20:47:03.664Z,70.95
2019-01-19T20:49:32.548Z,71.07
2019-01-19T20:52:01.449Z,70.95
2019-01-19T20:54:30.319Z,71.36
2019-01-19T20:56:59.358Z,71.26
2019-01-19T20:59:28.218Z,70.91
2019-01-19T21:01:57.133Z,71.60
2019-01-19T21:04:26.015Z,71.48
2019-01-19T21:06:54.909Z,71.94
2019-01-19T21:09:23.840Z,71.71
2019-01-19T21:11:52.741Z,71.58
2019-01-19T21:14:21.709Z,71.90
2019-01-19T21:16:50.553Z,71.25
2019-01-19T21:19:19.464Z,72.26
2019-01-19T21:21:48.343Z,72.02
2019-01-19T21:24:17.252Z,71.82
2019-01-19T21:26:46.124Z,72.35
2019-01-19T21:29:15.051Z,72.08
2019-01-19T21:31:43.946Z,72.19
2019-01-19T21:34:12.826Z,71.91
2019-01-19T21:36:41.742Z,71.77
2019-01-19T21:39:10.634Z,71.78
2019-01-19T21:41:39.528Z,71.31
2019-01-19T21:44:08.415Z,72.27
2019-01-19T21:46:37.308Z,72.17
2019-01-19T21:49:06.228Z,72.89
2019-01-19T21:51:35.116Z,72.71
2019-01-19T21:54:04.046Z,72.72
2019-01-19T21:56:32.973Z,72.64
2019-01-19T21:59:01.872Z,72.63
2019-01-19T22:01:30.768Z,71.81
2019-01-19T22:03:59.669Z,71.28
2019-01-19T22:06:28.565Z,72.06
2019-01-19T22:08:57.477Z,72.19
2019-01-19T22:11:26.423Z,72.53
2019-01-19T22:13:55.333Z,72.19
2019-01-19T22:16:24.204Z,72.41
2019-01-19T22:18:53.160Z,73.23
2019-01-19T22:21:22.058Z,71.84
2019-01-19T22:23:50.947Z,72.77
2019-01-19T22:26:19.848Z,73.07
2019-01-19T22:28:48.720Z,73.48
2019-01-19T22:31:17.640Z,73.07
2019-01-19T22:33:46.543Z,73.35
2019-01-19T22:36:15.437Z,73.33
2019-01-19T22:38:44.323Z,71.69
2019-01-19T22:41:13.227Z,72.95
2019-01-19T22:43:42.087Z,71.26
2019-01-19T22:46:10.956Z,73.15
2019-01-19T22:48:39.841Z,72.65
2019-01-19T22:51:11.294Z,72.78
2019-01-19T22:53:37.625Z,72.62
2019-01-19T22:56:06.647Z,72.60
2019-01-19T22:58:35.552Z,72.60
2019-01-19T23:01:34.315Z,72.83
2019-01-19T23:04:03.221Z,71.38
2019-01-19T23:06:32.110Z,72.44
2019-01-19T23:09:00.990Z,72.50
2019-01-19T23:11:33.933Z,72.72
2019-01-19T23:13:58.748Z,72.54
2019-01-19T23:16:27.671Z,72.18
2019-01-19T23:18:56.638Z,72.12
2019-01-19T23:21:25.506Z,71.73
2019-01-19T23:23:54.397Z,71.89
2019-01-19T23:26:23.311Z,72.05
2019-01-19T23:28:52.191Z,72.32
2019-01-19T23:31:21.080Z,72.21
2019-01-19T23:33:49.989Z,72.28
2019-01-19T23:36:18.853Z,72.14
2019-01-19T23:38:47.842Z,72.25
2019-01-19T23:41:16.725Z,71.86
2019-01-19T23:43:45.603Z,71.58
2019-01-19T23:46:14.519Z,71.55
2019-01-19T23:48:43.438Z,72.16
2019-01-19T23:51:12.324Z,72.87
2019-01-19T23:53:41.216Z,72.97
2019-01-19T23:56:10.095Z,73.45
2019-01-19T23:58:38.980Z,72.91
